WEATHER DATA

YESTERDAY
Time Temp. Dewp. Hum. Bar.
00:07 15 12 82 1014.8
00:17 14.9 12 83 1014.8
00:28 14.7 11.8 83 1014.8
00:37 14.6 11.7 83 1014.9
00:47 14.5 11.7 83 1014.9
00:58 14.4 11.6 83 1014.9
01:08 14.3 11.5 83 1014.9
01:17 14.3 11.5 83 1014.9
01:27 14.3 11.6 84 1014.8
01:38 14.2 11.5 84 1014.8
01:48 14.2 11.5 84 1014.8
01:58 14.2 11.5 84 1014.8
02:08 14.1 11.4 84 1014.8
02:18 14 11.3 84 1014.8
02:28 13.9 11.2 84 1014.8
02:38 13.9 11.2 84 1014.7
02:48 13.8 11.3 85 1014.6
02:57 13.7 11.2 85 1014.6
03:08 13.6 11.1 85 1014.6
03:19 13.5 11 85 1014.5
03:28 13.5 11 85 1014.5
03:38 13.5 11 85 1014.4
03:48 13.5 11 85 1014.3
03:59 13.6 11.1 85 1014.2
04:09 13.6 11.1 85 1014.1
04:18 13.5 11 85 1014.1
04:29 13.5 11 85 1014.1
04:39 13.5 11.2 86 1014.1
04:48 13.5 11.2 86 1014.1
04:59 13.6 11.3 86 1014
05:10 13.6 11.3 86 1013.9
05:19 13.6 11.3 86 1013.8
05:29 13.6 11.3 86 1013.8
05:40 13.6 11.3 86 1013.8
05:50 13.6 11.3 86 1013.8
05:59 13.6 11.3 86 1013.7
06:09 13.6 11.3 86 1013.6
06:19 13.6 11.3 86 1013.6
06:30 13.6 11.3 86 1013.6
06:40 13.6 11.3 86 1013.6
06:50 13.6 11.3 86 1013.7
07:00 13.6 11.3 86 1013.7
07:10 13.6 11.5 87 1013.7
07:20 13.7 11.6 87 1013.8
07:31 13.7 11.6 87 1013.7
07:40 13.7 11.6 87 1013.8
07:49 13.7 11.6 87 1013.8
08:01 13.8 11.7 87 1013.9
08:11 13.9 11.8 87 1013.9
08:20 13.9 11.8 87 1014
08:30 14 11.9 87 1014.2
08:40 14 11.9 87 1014.3
08:51 14.2 12.1 87 1014.2
09:01 14.3 12.2 87 1014.3
09:11 14.4 12.3 87 1014.2
09:21 14.6 12.5 87 1014.2
09:31 14.7 12.6 87 1014.1
09:41 14.9 12.8 87 1014.1
09:52 15.1 13 87 1014.2
10:01 15.3 13.2 87 1014.2
10:11 15.5 13.3 87 1014.3
10:21 15.7 13.5 87 1014.3
10:32 15.9 13.7 87 1014.2
10:41 16.2 14 87 1014.2
10:51 16.4 14.2 87 1014.1
11:02 16.7 14.5 87 1014.1
11:11 16.9 14.5 86 1014
11:22 17.3 14.9 86 1014
11:32 17.5 15.1 86 1013.9
11:42 17.8 15.4 86 1013.9
11:52 18 15.6 86 1013.9
12:02 18.3 15.7 85 1013.8
12:13 18.4 15.8 85 1013.7
12:22 18.4 15.8 85 1013.8
12:32 18.6 16 85 1013.9
12:42 18.9 16.1 84 1013.9
12:53 19.3 16.5 84 1013.8
13:02 19.7 16.9 84 1013.8
13:12 19.9 16.9 83 1013.7
13:23 20.2 17.2 83 1013.8
13:33 20.5 17.5 83 1013.7
13:43 20.7 17.7 83 1013.5
13:53 20.8 17.6 82 1013.3
14:03 20.9 17.7 82 1013.1
14:13 21.1 17.9 82 1013.1
14:23 21.3 18.1 82 1013.1
14:33 21.5 18.3 82 1013.1
14:42 21.7 18.3 81 1012.9
14:53 21.9 18.5 81 1013
15:03 22.1 18.7 81 1012.9
15:14 22.3 18.9 81 1012.8
15:23 22.5 19.1 81 1012.7
15:33 22.4 18.8 80 1012.6
15:44 22.2 18.6 80 1012.6
15:54 22.1 18.5 80 1012.5
16:03 22 18.4 80 1012.5
16:14 21.8 18.2 80 1012.4
16:24 21.7 18.1 80 1012.3
16:34 21.7 17.9 79 1012.3
16:44 21.7 17.9 79 1012.3
16:54 21.7 17.9 79 1012.3
17:04 21.8 18 79 1012.2
17:14 21.7 17.9 79 1012.2
17:24 21.6 17.8 79 1012.1
17:34 21.4 17.6 79 1012.1
17:44 21.2 17.2 78 1012.1
17:54 21 17 78 1012.1
18:05 20.9 16.9 78 1012
18:15 20.8 16.8 78 1012.1
18:24 20.8 16.8 78 1012.2
18:35 20.7 16.7 78 1012.1
18:45 20.6 16.6 78 1012.2
18:55 20.3 16.3 78 1012.1
19:04 20.1 16.1 78 1012.1
19:15 19.8 15.9 78 1012.3
19:25 19.6 15.7 78 1012.1
19:35 19.3 15.4 78 1012.1
19:45 19 15.1 78 1011.8
19:55 18.7 14.8 78 1011.9
20:05 18.4 14.5 78 1012
20:15 18.2 14.5 79 1012.1
20:26 17.9 14.2 79 1012.2
20:35 17.7 14 79 1012.2
20:45 17.5 13.8 79 1012.2
20:55 17.4 13.7 79 1012.4
21:06 17.1 13.6 80 1012.5
21:16 17 13.5 80 1012.6
21:25 16.9 13.4 80 1012.6
21:35 16.7 13.2 80 1012.6
21:46 16.6 13.3 81 1012.6
21:55 16.4 13.1 81 1012.6
22:05 16.3 13 81 1012.8
22:16 16.3 13 81 1012.7
22:26 16.2 13.1 82 1012.7
22:36 16.1 13 82 1012.7
22:46 16.1 13 82 1012.8
22:56 16.1 13.2 83 1012.8
23:06 16.1 13.2 83 1012.8
23:17 16.1 13.2 83 1012.9
23:27 16 13.1 83 1012.9
23:35 16 13.3 84 1012.9
23:46 16 13.3 84 1012.9
23:57 15.9 13.2 84 1013

DAY STATISTIC

2021-09-17
TEMPERATURE
AVERAGE
16.9
HIGH
22.5
15:23
LOW
13.5
03:19
PRESSURE
AVERAGE
1013.4
HIGH
1014.9
00:37
LOW
1011.8
19:45
DEWPOINT
AVERAGE
14.0
HIGH
19.1
15:23
LOW
11.0
03:19
HUMIDITY
AVERAGE
83
HIGH
87
07:10
LOW
78
17:44
TEMPERATURE (°C)
LOW
13.5
HIGH
22.5
AVERAGE
16.9
PRESSURE (hpa)
LOW
1011.8
HIGH
1014.9
AVERAGE
1013.4
DEVICE